Terminal Aerodrome Forecast
Issued by NWS

Home | Current Version | Previous Version | Text Only | Print | Product List | Glossary On
Versions: 1 2 3 4 5 6 7 8 9 10 11 12 13 14 15 16 17 18
000
FTUS43 KGLD 122328
TAFMCK
TAF
KMCK 122328Z 1300/1324 24006KT P6SM SKC
     FM131000 30015KT P6SM SKC
     FM131600 34023G35KT P6SM SCT250=

USA.gov is the U.S. government's official web portal to all federal, state and local government web resources and services.